Latest Weather Observations for Naracoorte

IDS60801

Issued at 8:01 pm CDT Monday 17 December 2018 (issued every 10 minutes, with the page automatically refreshed every 10 minutes)

About weather observations | Map of weather stations | Latest weather observations for SA | Other Formats
Station Details ID: 026099 Name: NARACOORTE AERODROME Lat: -36.98 Lon: 140.73 Height: 49.72 m
Data from the previous 72 hours. | See also: Recent months at Naracoorte
Date/Time
CDT
Temp
°C
App
Temp
°C
Dew
Point
°C
Rel
Hum
%
Delta-T
°C
Wind Press
QNH
hPa
Press
MSL
hPa
Rain since
9am
mm
Dir  Spd
km/h
Gust
km/h
Spd
kts
Gust
kts
17/08:00pm 18.4 14.8 14.1 76 2.5 S 26 32 14 17 1014.2 1014.1 0.0
17/07:30pm 19.7 15.8 14.3 71 3.1 S 28 37 15 20 1013.6 1013.5 0.0
17/07:00pm 20.6 16.8 14.7 69 3.5 S 28 33 15 18 1012.9 1012.8 0.0
17/06:30pm 22.0 18.0 15.1 65 4.1 S 30 35 16 19 1012.6 1012.5 0.0
17/06:00pm 21.7 18.0 15.1 66 3.9 SSE 28 37 15 20 1012.4 1012.3 0.0
17/05:30pm 22.4 18.9 14.5 61 4.7 S 26 35 14 19 1012.7 1012.6 0.0
17/05:00pm 23.5 20.3 15.3 60 4.9 S 26 35 14 19 1012.8 1012.7 0.0
17/04:30pm 23.6 19.9 13.8 54 5.7 S 26 35 14 19 1013.0 1012.9 0.0
17/04:00pm 23.1 20.4 14.7 59 5.0 S 22 32 12 17 1013.1 1013.0 0.0
17/03:30pm 23.0 20.7 14.6 59 5.0 S 20 32 11 17 1013.4 1013.3 0.0
17/03:00pm 23.5 21.5 15.0 59 5.1 S 19 33 10 18 1013.6 1013.5 0.0
17/02:30pm 23.4 20.9 14.1 56 5.5 S 20 30 11 16 1013.7 1013.6 0.0
17/02:00pm 24.0 21.1 14.1 54 5.8 S 22 32 12 17 1013.5 1013.4 0.0
17/01:30pm 22.6 19.6 13.7 57 5.2 S 22 30 12 16 1013.4 1013.3 0.0
17/01:00pm 22.1 19.4 13.5 58 5.0 SSE 20 32 11 17 1013.1 1013.0 0.0
17/12:30pm 22.2 19.4 13.3 57 5.1 SSE 20 33 11 18 1013.5 1013.4 0.0
17/12:00pm 20.9 18.2 12.8 60 4.6 S 19 28 10 15 1013.3 1013.2 0.0
17/11:30am 20.6 18.4 13.3 63 4.2 SSE 17 24 9 13 1013.4 1013.3 0.0
17/11:00am 20.3 17.8 14.0 67 3.6 SSE 20 30 11 16 1013.3 1013.2 0.0
17/10:30am 19.6 17.0 13.3 67 3.6 S 19 26 10 14 1013.4 1013.3 0.0
17/10:00am 18.6 15.4 13.0 70 3.2 SSE 22 28 12 15 1013.3 1013.2 0.0
17/09:30am 17.4 14.8 13.3 77 2.3 SSE 19 24 10 13 1013.6 1013.5 0.0
17/09:00am 16.5 13.5 13.8 84 1.5 S 22 30 12 16 1013.4 1013.3 0.2
17/08:30am 15.8 12.7 13.5 86 1.3 S 22 28 12 15 1013.5 1013.4 0.2
17/08:00am 15.6 12.8 13.1 85 1.4 S 20 28 11 15 1013.1 1013.0 0.2
17/07:30am 15.3 12.4 12.8 85 1.4 S 20 28 11 15 1012.6 1012.5 0.2
17/07:00am 15.1 11.5 13.1 88 1.1 S 24 30 13 16 1012.1 1012.0 0.2
17/06:30am 14.8 10.9 13.2 90 0.9 S 26 32 14 17 1012.0 1011.9 0.2
17/06:00am 15.4 13.0 13.9 91 0.8 S 19 26 10 14 1011.4 1011.3 0.2
17/05:30am 15.4 12.9 14.1 92 0.7 S 20 24 11 13 1011.1 1011.0 0.2
17/05:00am 15.5 12.7 14.4 93 0.6 SSE 22 28 12 15 1010.7 1010.6 0.2
17/04:30am 15.5 13.7 14.5 94 0.6 S 17 24 9 13 1010.4 1010.3 0.2
17/04:00am 15.5 12.8 14.5 94 0.6 S 22 26 12 14 1010.3 1010.2 0.2
17/03:30am 15.9 13.7 14.9 94 0.6 SSE 20 24 11 13 1009.8 1009.7 0.2
17/03:00am 16.4 16.1 15.4 94 0.6 SSW 11 13 6 7 1009.9 1009.8 0.2
17/02:30am 16.4 15.7 15.4 94 0.6 SSW 13 15 7 8 1009.9 1009.8 0.2
17/02:00am 16.5 15.7 15.2 92 0.8 SSW 13 17 7 9 1010.0 1009.9 0.2
17/01:30am 16.6 15.8 15.1 91 0.9 SW 13 15 7 8 1010.3 1010.2 0.2
17/01:00am 16.7 15.8 14.9 89 1.0 SSW 13 17 7 9 1010.4 1010.3 0.2
17/12:30am 16.7 15.4 14.9 89 1.0 S 15 19 8 10 1010.3 1010.2 0.2
17/12:00am 16.7 15.9 15.1 90 0.9 SSW 13 19 7 10 1010.2 1010.1 0.2
 
Date/Time
CDT
Temp
°C
App
Temp
°C
Dew
Point
°C
Rel
Hum
%
Delta-T
°C
Wind Press
QNH
hPa
Press
MSL
hPa
Rain since
9am
mm
Dir  Spd
km/h
Gust
km/h
Spd
kts
Gust
kts
16/11:30pm 16.8 15.2 15.0 89 1.0 SW 17 20 9 11 1010.4 1010.3 0.2
16/11:00pm 16.9 15.6 14.9 88 1.2 SSW 15 19 8 10 1010.0 1009.9 0.2
16/10:30pm 17.1 15.8 14.9 87 1.3 SW 15 20 8 11 1010.0 1009.9 0.2
16/10:00pm 17.3 16.0 14.9 86 1.4 SSW 15 19 8 10 1009.2 1009.1 0.2
16/09:30pm 17.6 15.7 15.2 86 1.4 SSW 19 24 10 13 1009.0 1008.9 0.2
16/09:00pm 17.4 15.2 15.0 86 1.4 SW 20 28 11 15 1008.8 1008.7 0.2
16/08:30pm 17.7 16.0 14.8 83 1.7 SW 17 24 9 13 1008.2 1008.1 0.2
16/08:00pm 19.6 17.4 15.0 75 2.7 WSW 20 28 11 15 1007.8 1007.7 0.2
16/07:30pm 21.3 18.4 15.2 68 3.6 SW 24 32 13 17 1007.3 1007.2 0.2
16/07:00pm 22.8 19.3 14.4 59 5.0 SW 26 33 14 18 1006.6 1006.5 0.2
16/06:30pm 23.5 19.9 14.2 56 5.5 SW 26 35 14 19 1006.3 1006.2 0.2
16/06:00pm 24.1 20.3 14.8 56 5.6 SW 28 37 15 20 1005.9 1005.8 0.2
16/05:30pm 25.2 21.4 15.8 56 5.7 SSW 30 37 16 20 1005.3 1005.2 0.2
16/05:00pm 25.4 22.5 12.3 44 7.5 SSW 19 30 10 16 1005.0 1004.9 0.2
16/04:30pm 27.3 23.5 11.3 37 9.2 SW 22 30 12 16 1004.9 1004.8 0.2
16/04:00pm 26.9 23.8 12.2 40 8.5 SW 20 32 11 17 1004.8 1004.7 0.2
16/03:30pm 24.6 23.8 12.9 48 6.8 WSW 9 15 5 8 1005.1 1005.0 0.2
16/03:00pm 24.5 24.0 13.7 51 6.4 WSW 9 20 5 11 1005.0 1004.9 0.2
16/02:30pm 24.9 23.8 13.1 48 6.9 WSW 11 17 6 9 1004.9 1004.8 0.2
16/02:00pm 24.8 23.7 13.0 47 6.9 W 11 19 6 10 1005.0 1004.9 0.2
16/01:30pm 24.1 22.8 12.4 48 6.7 SW 11 22 6 12 1005.1 1005.0 0.2
16/01:00pm 23.6 23.6 14.3 56 5.5 W 7 13 4 7 1005.1 1005.0 0.2
16/12:30pm 22.7 22.6 14.0 58 5.1 SW 7 11 4 6 1005.1 1005.0 0.2
16/12:00pm 22.0 21.0 14.6 63 4.4 NW 13 20 7 11 1005.4 1005.3 0.2
16/11:30am 20.9 20.6 14.5 67 3.8 NW 9 13 5 7 1005.5 1005.4 0.2
16/11:00am 20.9 21.0 15.4 71 3.3 W 9 13 5 7 1005.6 1005.5 0.0
16/10:30am 19.3 18.7 14.6 74 2.7 W 11 15 6 8 1005.3 1005.2 0.0
16/10:00am 19.2 19.2 14.2 73 2.9 NNW 7 11 4 6 1005.1 1005.0 0.0
16/09:30am 19.5 20.1 15.2 76 2.5 WNW 6 11 3 6 1005.2 1005.1 0.0
16/09:00am 18.3 18.7 15.4 83 1.7 NNW 7 9 4 5 1005.1 1005.0 1.0
16/08:30am 17.6 17.6 15.2 86 1.4 WNW 9 13 5 7 1004.9 1004.8 1.0
16/08:00am 17.4 17.4 15.2 87 1.3 WNW 9 11 5 6 1004.7 1004.6 1.0
16/07:30am 17.3 19.1 15.6 90 1.0 CALM 0 2 0 1 1004.4 1004.3 1.0
16/07:00am 16.8 18.6 15.5 92 0.8 CALM 0 0 0 0 1003.8 1003.7 1.0
16/06:30am 16.3 16.9 15.2 93 0.6 WSW 6 9 3 5 1003.6 1003.5 1.0
16/06:00am 16.5 17.1 15.4 93 0.6 WNW 6 7 3 4 1003.4 1003.3 1.0
16/05:30am 16.5 16.9 15.4 93 0.6 NW 7 9 4 5 1003.2 1003.1 1.0
16/05:00am 16.5 16.9 15.4 93 0.6 NW 7 9 4 5 1003.1 1003.0 1.0
16/04:30am 16.4 16.9 15.1 92 0.8 N 6 7 3 4 1002.9 1002.8 1.0
16/04:00am 16.4 17.7 15.1 92 0.8 N 2 7 1 4 1003.0 1002.9 1.0
16/03:30am 16.2 16.5 14.9 92 0.8 NE 7 9 4 5 1002.7 1002.6 1.0
16/03:00am 16.2 17.0 14.9 92 0.8 NNE 4 7 2 4 1002.7 1002.6 1.0
16/02:30am 16.1 15.9 14.8 92 0.8 N 9 13 5 7 1002.5 1002.4 1.0
16/02:00am 15.9 16.1 14.6 92 0.7 NNE 7 11 4 6 1002.7 1002.6 1.0
16/01:30am 15.7 15.0 14.4 92 0.7 NNE 11 13 6 7 1002.5 1002.4 1.0
16/01:00am 15.7 15.4 14.4 92 0.7 N 9 13 5 7 1002.8 1002.7 1.0
16/12:30am 15.7 15.0 14.4 92 0.7 NNE 11 13 6 7 1003.0 1002.9 1.0
16/12:00am 15.6 15.3 14.3 92 0.7 NE 9 11 5 6 1003.5 1003.4 1.0
 
Date/Time
CDT
Temp
°C
App
Temp
°C
Dew
Point
°C
Rel
Hum
%
Delta-T
°C
Wind Press
QNH
hPa
Press
MSL
hPa
Rain since
9am
mm
Dir  Spd
km/h
Gust
km/h
Spd
kts
Gust
kts
15/11:30pm 15.8 15.9 14.5 92 0.7 NE 7 11 4 6 1003.5 1003.4 1.0
15/11:00pm 15.8 14.8 14.5 92 0.7 E 13 20 7 11 1003.6 1003.5 1.0
15/10:30pm 15.8 17.3 14.7 93 0.6 CALM 0 0 0 0 1003.4 1003.3 1.0
15/10:00pm 16.0 17.5 14.7 92 0.7 CALM 0 0 0 0 1003.4 1003.3 1.0
15/09:30pm 15.9 15.6 14.4 91 0.9 NNE 9 9 5 5 1002.9 1002.8 1.0
15/09:00pm 16.0 15.7 14.5 91 0.9 NNW 9 13 5 7 1002.4 1002.3 0.8
15/08:30pm 15.9 14.4 14.3 90 0.9 N 15 19 8 10 1003.0 1002.9 0.8
15/08:00pm 16.1 14.2 14.1 88 1.1 NNE 17 24 9 13 1003.3 1003.2 0.8
15/07:30pm 16.4 14.6 14.4 88 1.1 NE 17 30 9 16 1002.9 1002.8 0.8
15/07:00pm 17.9 19.6 15.2 84 1.6 CALM 0 6 0 3 1002.8 1002.7 0.6
15/06:30pm 17.1 16.6 14.9 87 1.3 W 11 17 6 9 1002.6 1002.5 0.6
15/06:00pm 16.5 13.4 14.5 88 1.2 W 24 30 13 16 1002.1 1002.0 0.6
15/05:30pm 17.2 12.0 12.9 76 2.4 W 32 43 17 23 1002.2 1002.1 0.0
15/05:00pm 20.1 16.6 13.3 65 3.9 WSW 24 33 13 18 1002.1 1002.0 0.0
15/04:30pm 23.2 21.4 14.5 58 5.2 SSE 17 20 9 11 1001.8 1001.6 0.0
15/04:00pm 24.0 21.1 12.9 50 6.4 S 20 28 11 15 1001.8 1001.6 0.0
15/03:30pm 23.4 20.8 12.1 49 6.5 SSE 17 22 9 12 1002.2 1002.1 0.0
15/03:00pm 23.6 22.5 12.0 48 6.6 S 9 13 5 7 1002.2 1002.1 0.0
15/02:30pm 24.4 22.8 10.3 41 7.8 S 9 13 5 7 1002.3 1002.2 0.0
15/02:00pm 24.7 24.6 13.3 49 6.7 W 6 13 3 7 1002.7 1002.6 0.0
15/01:30pm 24.2 22.8 10.8 43 7.5 S 9 17 5 9 1003.3 1003.2 0.0
15/01:00pm 24.3 23.1 11.6 45 7.2 SW 9 20 5 11 1003.5 1003.4 0.0
15/12:30pm 24.8 23.8 13.4 49 6.7 WSW 11 20 6 11 1003.9 1003.8 0.0
15/12:00pm 22.6 22.5 13.9 58 5.1 WNW 7 13 4 7 1004.0 1003.9 0.0
15/11:30am 21.2 22.9 15.3 69 3.5 CALM 0 6 0 3 1004.5 1004.4 0.0
15/11:00am 20.3 21.1 15.9 76 2.6 SW 6 11 3 6 1004.7 1004.6 0.0
15/10:30am 19.4 19.9 15.1 76 2.5 SW 6 9 3 5 1005.1 1005.0 0.0
15/10:00am 18.8 20.6 15.5 81 1.9 CALM 0 6 0 3 1005.5 1005.4 0.0
15/09:30am 17.8 19.4 16.0 89 1.1 ESE 2 7 1 4 1006.2 1006.1 0.0
15/09:00am 16.4 17.1 15.6 95 0.5 NNE 6 9 3 5 1006.2 1006.1 3.4
15/08:30am 15.5 16.0 14.9 96 0.3 NE 6 11 3 6 1005.8 1005.7 3.4
15/08:00am 15.3 15.1 14.7 96 0.3 ENE 9 13 5 7 1005.5 1005.4 3.4
15/07:30am 14.9 14.6 14.3 96 0.3 ESE 9 11 5 6 1005.1 1005.0 3.4
15/07:00am 14.6 13.8 14.0 96 0.3 SE 11 13 6 7 1005.2 1005.1 3.4
15/06:30am 14.2 13.6 13.6 96 0.3 SSE 9 11 5 6 1005.0 1004.9 3.4
15/06:00am 12.9 12.8 12.1 95 0.4 SE 4 7 2 4 1004.6 1004.5 3.4
15/05:30am 13.4 12.5 12.5 94 0.5 SE 9 15 5 8 1004.6 1004.5 3.4
15/05:00am 14.2 13.9 13.2 94 0.6 S 7 11 4 6 1004.9 1004.8 3.4
15/04:30am 15.0 14.9 13.9 93 0.6 SSE 7 9 4 5 1004.8 1004.7 3.4
15/04:00am 15.5 14.8 14.4 93 0.6 ESE 11 15 6 8 1004.7 1004.6 3.4
15/03:30am 15.6 15.0 14.5 93 0.6 SE 11 13 6 7 1004.8 1004.7 3.4
15/03:00am 15.7 15.1 14.6 93 0.6 SE 11 15 6 8 1004.9 1004.8 3.4
15/02:30am 15.9 14.6 14.8 93 0.6 SE 15 19 8 10 1004.9 1004.8 3.4
15/02:00am 16.1 14.9 15.0 93 0.6 ESE 15 19 8 10 1005.4 1005.3 3.4
15/01:30am 16.4 16.0 15.3 93 0.6 ESE 11 15 6 8 1005.8 1005.7 3.4
15/01:00am 16.4 14.9 15.3 93 0.6 ESE 17 22 9 12 1005.8 1005.7 3.4
15/12:30am 16.3 15.9 15.2 93 0.6 ESE 11 15 6 8 1006.1 1006.0 3.4
15/12:00am 16.3 15.5 15.0 92 0.8 SE 13 17 7 9 1006.0 1005.9 3.4
 
Date/Time
CDT
Temp
°C
App
Temp
°C
Dew
Point
°C
Rel
Hum
%
Delta-T
°C
Wind Press
QNH
hPa
Press
MSL
hPa
Rain since
9am
mm
Dir  Spd
km/h
Gust
km/h
Spd
kts
Gust
kts
14/11:30pm 17.2 17.1 16.1 93 0.7 ESE 11 15 6 8 1005.6 1005.5 3.2
14/11:00pm 17.5 18.0 16.5 94 0.6 S 9 13 5 7 1006.1 1006.0 3.0
14/10:30pm 17.4 17.8 16.3 93 0.7 SSE 9 13 5 7 1005.8 1005.7 2.6
14/10:00pm 17.4 16.2 16.1 92 0.8 SSE 17 20 9 11 1006.0 1005.9 2.0
14/09:30pm 17.7 16.1 16.0 90 1.0 S 19 24 10 13 1005.4 1005.3 1.8
14/09:00pm 17.9 16.7 16.1 89 1.1 S 17 24 9 13 1005.4 1005.3 1.8
14/08:30pm 18.2 16.6 16.0 87 1.3 S 19 24 10 13 1005.5 1005.4 1.6

Other Formats:

Comma delimited format used in spreadsheet applications
http://www.bom.gov.au/fwo/IDS60801/IDS60801.94820.axf

JavaScript Object Notation format (JSON) in row-major order
http://www.bom.gov.au/fwo/IDS60801/IDS60801.94820.json